Dunkirk, New York
Current Conditions -  °F | °C
As of 4:53 PM on Saturday 25 Oct 2014 (Local Time) from KDKK Reporting Station
Haze Haze  
Wind Chill: 58°   Ceiling: 3000
Heat Index: 58°   Visibility: 6mi
Dew Point: 53°   Wind: 23mph
Humidity: 84%   Direction: 240°WSW
Pressure: 29.67"   Gusts: 32mph
Location:  42.49°N, 79.34°W
Report Text: KDKK 252053Z AUTO 24020G28KT 6SM HZ FEW012 BKN030 14/12 A2967 RMK AO2 PK WND 24031/2039 RAE1958 SLP047 P0000 60000 T01440117 58004
Loading
Personal Weather Stations






























Interactive Weather Map
Tropical Storm Tracking
New forecast layout! Learn more

10-Day Weather Forecast

Advertisements
Track Severe Weather on mobile